createdAt,value
2022-08-10T00:01:02.092Z,100929.50
2022-08-10T00:03:28.545Z,100924.50
2022-08-10T00:05:56.530Z,100934.84
2022-08-10T00:08:27.215Z,100931.34
2022-08-10T00:10:55.071Z,100916.94
2022-08-10T00:13:22.731Z,100926.94
2022-08-10T00:15:53.495Z,100926.16
2022-08-10T00:18:31.488Z,100929.41
2022-08-10T00:21:02.103Z,100924.00
2022-08-10T00:23:28.525Z,100926.59
2022-08-10T00:25:54.943Z,100925.72
2022-08-10T00:28:21.379Z,100927.22
2022-08-10T00:30:47.882Z,100927.25
2022-08-10T00:33:14.325Z,100932.44
2022-08-10T00:35:40.749Z,100928.47
2022-08-10T00:38:07.140Z,100924.78
2022-08-10T00:40:37.092Z,100924.00
2022-08-10T00:43:05.579Z,100921.03
2022-08-10T00:45:31.984Z,100926.38
2022-08-10T00:47:58.439Z,100919.34
2022-08-10T00:50:24.954Z,100920.66
2022-08-10T00:52:51.801Z,100927.16
2022-08-10T00:55:19.156Z,100920.31
2022-08-10T00:57:47.001Z,100915.00
2022-08-10T01:00:22.709Z,100915.66
2022-08-10T01:02:49.319Z,100917.41
2022-08-10T01:05:19.343Z,100911.72
2022-08-10T01:08:05.302Z,100917.28
2022-08-10T01:10:50.279Z,100915.13
2022-08-10T01:13:32.157Z,100916.28
2022-08-10T01:16:28.290Z,100915.13
2022-08-10T01:19:20.762Z,100915.34
2022-08-10T01:22:24.589Z,100914.03
2022-08-10T01:25:09.276Z,100922.19
2022-08-10T01:28:13.301Z,100925.00
2022-08-10T01:30:43.134Z,100928.03
2022-08-10T01:33:13.013Z,100922.19
2022-08-10T01:36:07.473Z,100921.53
2022-08-10T01:38:43.633Z,100922.66
2022-08-10T01:41:13.984Z,100919.69
2022-08-10T01:43:58.410Z,100930.81
2022-08-10T01:46:32.603Z,100925.09
2022-08-10T01:49:01.668Z,100924.88
2022-08-10T01:51:38.647Z,100932.22
2022-08-10T01:54:12.635Z,100932.81
2022-08-10T01:56:43.106Z,100932.16
2022-08-10T01:59:15.538Z,100949.16
2022-08-10T02:01:47.747Z,100932.31
2022-08-10T02:04:16.977Z,100939.00
2022-08-10T02:06:50.947Z,100942.72
2022-08-10T02:09:22.234Z,100945.94
2022-08-10T02:12:05.946Z,100941.44
2022-08-10T02:14:55.609Z,100944.25
2022-08-10T02:17:59.653Z,100953.97
2022-08-10T02:20:33.603Z,100942.94
2022-08-10T02:23:05.218Z,100945.44
2022-08-10T02:25:40.581Z,100948.94
2022-08-10T02:28:27.013Z,100959.94
2022-08-10T02:30:59.400Z,100961.16
2022-08-10T02:33:27.655Z,100954.06
2022-08-10T02:35:56.169Z,100961.47
2022-08-10T02:38:59.590Z,100961.50
2022-08-10T02:45:12.117Z,100963.53
2022-08-10T02:45:23.508Z,100971.94
2022-08-10T02:47:28.701Z,100965.88
2022-08-10T02:50:13.332Z,100965.56
2022-08-10T02:52:47.661Z,100967.78
2022-08-10T02:55:40.440Z,100977.34
2022-08-10T02:58:17.103Z,100974.97
2022-08-10T03:00:48.377Z,100972.22
2022-08-10T03:03:21.203Z,100969.72
2022-08-10T03:05:51.047Z,100968.25
2022-08-10T03:08:22.573Z,100969.38
2022-08-10T03:10:49.624Z,100968.41
2022-08-10T03:13:18.601Z,100964.91
2022-08-10T03:15:46.369Z,100954.84
2022-08-10T03:18:14.190Z,100962.03
2022-08-10T03:20:42.817Z,100968.97
2022-08-10T03:23:18.626Z,100964.75
2022-08-10T03:25:53.017Z,100966.16
2022-08-10T03:28:23.022Z,100974.69
2022-08-10T03:30:49.991Z,100961.59
2022-08-10T03:33:17.697Z,100974.25
2022-08-10T03:35:44.149Z,100971.00
2022-08-10T03:38:30.599Z,100971.84
2022-08-10T03:41:01.542Z,100974.56
2022-08-10T03:43:28.900Z,100979.63
2022-08-10T03:45:58.559Z,100977.63
2022-08-10T03:48:32.348Z,100974.13
2022-08-10T03:51:15.746Z,100976.34
2022-08-10T03:54:06.230Z,100974.94
2022-08-10T03:56:32.431Z,100972.47
2022-08-10T03:58:59.841Z,100967.59
2022-08-10T04:02:42.233Z,100973.06
2022-08-10T04:04:17.866Z,100977.25
2022-08-10T04:06:51.410Z,100983.22
2022-08-10T04:09:21.113Z,100971.97
2022-08-10T04:11:47.562Z,100968.72
2022-08-10T04:14:35.707Z,100967.00
2022-08-10T04:17:00.513Z,100983.13
2022-08-10T04:19:28.393Z,100970.81
2022-08-10T04:22:08.782Z,100975.69
2022-08-10T04:24:37.938Z,100982.38
2022-08-10T04:27:05.002Z,100979.53
2022-08-10T04:29:31.411Z,100976.63
2022-08-10T04:31:58.138Z,100976.81
2022-08-10T04:34:31.695Z,100982.81
2022-08-10T04:37:04.339Z,100982.38
2022-08-10T04:39:33.388Z,100990.03
2022-08-10T04:42:00.033Z,100993.22
2022-08-10T04:44:26.473Z,100996.63
2022-08-10T04:46:57.811Z,100999.56
2022-08-10T04:49:54.747Z,100989.38
2022-08-10T04:52:12.453Z,101003.63
2022-08-10T04:54:38.883Z,100994.97
2022-08-10T04:57:06.264Z,101000.13
2022-08-10T04:59:32.821Z,100998.75
2022-08-10T05:02:22.415Z,101003.97
2022-08-10T05:04:45.672Z,100999.53
2022-08-10T05:07:15.821Z,101006.66
2022-08-10T05:10:01.474Z,101007.22
2022-08-10T05:12:32.471Z,101003.91
2022-08-10T05:15:02.867Z,101005.47
2022-08-10T05:17:29.372Z,101010.59
2022-08-10T05:20:03.305Z,101006.69
2022-08-10T05:22:34.699Z,101005.34
2022-08-10T05:25:01.229Z,101008.56
2022-08-10T05:27:27.711Z,101009.19
2022-08-10T05:30:02.469Z,101014.31
2022-08-10T05:32:31.388Z,101016.69
2022-08-10T05:34:57.962Z,101011.31
2022-08-10T05:38:09.952Z,101008.69
2022-08-10T05:40:12.016Z,101011.28
2022-08-10T05:42:39.579Z,101006.31
2022-08-10T05:45:09.351Z,101012.13
2022-08-10T05:48:55.303Z,101011.88
2022-08-10T05:50:27.851Z,101008.88
2022-08-10T05:52:54.833Z,101017.03
2022-08-10T05:55:23.387Z,101016.56
2022-08-10T05:57:51.489Z,101017.00
2022-08-10T06:00:36.789Z,101017.22
2022-08-10T06:03:08.241Z,101010.25
2022-08-10T06:05:39.379Z,101013.03
2022-08-10T06:08:13.638Z,101004.75
2022-08-10T06:12:24.436Z,101013.34
2022-08-10T06:13:57.248Z,101009.66
2022-08-10T06:16:27.409Z,101007.28
2022-08-10T06:18:55.057Z,101018.94
2022-08-10T06:21:22.005Z,101018.56
2022-08-10T06:23:49.823Z,101018.50
2022-08-10T06:26:21.011Z,101029.00
2022-08-10T06:29:03.556Z,101022.59
2022-08-10T06:31:48.521Z,101025.22
2022-08-10T06:34:20.473Z,101017.66
2022-08-10T06:36:47.695Z,101032.56
2022-08-10T06:39:32.478Z,101023.88
2022-08-10T06:42:15.408Z,101033.03
2022-08-10T06:44:54.561Z,101031.75
2022-08-10T06:47:26.708Z,101023.63
2022-08-10T06:49:59.599Z,101029.00
2022-08-10T06:52:28.570Z,101020.25
2022-08-10T06:54:57.253Z,101027.13
2022-08-10T06:57:28.913Z,101026.16
2022-08-10T06:59:58.715Z,101025.50
2022-08-10T07:02:37.612Z,101025.66
2022-08-10T07:05:08.593Z,101024.25
2022-08-10T07:07:38.697Z,101029.19
2022-08-10T07:10:06.761Z,101029.34
2022-08-10T07:12:36.547Z,101021.09
2022-08-10T07:15:04.767Z,101017.25
2022-08-10T07:17:36.007Z,101023.97
2022-08-10T07:20:09.295Z,101027.44
2022-08-10T07:23:26.910Z,101021.25
2022-08-10T07:25:27.038Z,101021.59
2022-08-10T07:28:00.735Z,101022.94
2022-08-10T07:30:30.375Z,101015.81
2022-08-10T07:32:58.583Z,101019.88
2022-08-10T07:35:28.359Z,101035.22
2022-08-10T07:37:59.671Z,101025.59
2022-08-10T07:40:26.720Z,101033.50
2022-08-10T07:42:57.838Z,101024.94
2022-08-10T07:45:28.344Z,101027.06
2022-08-10T07:48:09.798Z,101030.69
2022-08-10T07:50:39.491Z,101023.31
2022-08-10T07:53:10.089Z,101025.41
2022-08-10T07:56:02.234Z,101031.56
2022-08-10T07:58:31.423Z,101028.97
2022-08-10T08:01:00.042Z,101035.06
2022-08-10T08:03:29.360Z,101036.50
2022-08-10T08:06:02.842Z,101041.13
2022-08-10T08:08:33.440Z,101043.84
2022-08-10T08:11:03.036Z,101037.41
2022-08-10T08:13:31.002Z,101037.53
2022-08-10T08:16:16.775Z,101026.22
2022-08-10T08:19:03.988Z,101020.41
2022-08-10T08:24:08.457Z,101029.22
2022-08-10T08:24:32.992Z,101025.31
2022-08-10T08:27:02.949Z,101022.66
2022-08-10T08:29:33.127Z,101020.78
2022-08-10T08:32:03.407Z,101020.91
2022-08-10T08:34:36.797Z,101024.34
2022-08-10T08:37:04.672Z,101023.28
2022-08-10T08:39:33.149Z,101016.19
2022-08-10T08:42:30.455Z,101014.47
2022-08-10T08:44:59.819Z,101019.81
2022-08-10T08:48:04.167Z,101007.44
2022-08-10T08:50:45.813Z,101014.78
2022-08-10T08:53:22.433Z,101025.13
2022-08-10T08:56:06.910Z,101017.00
2022-08-10T08:58:51.953Z,101016.00
2022-08-10T09:01:24.499Z,101026.94
2022-08-10T09:04:34.243Z,101023.34
2022-08-10T09:07:59.758Z,101024.84
2022-08-10T09:10:39.638Z,101012.84
2022-08-10T09:13:29.434Z,101018.03
2022-08-10T09:16:02.090Z,101008.31
2022-08-10T09:18:51.726Z,101015.53
2022-08-10T09:22:12.913Z,101007.34
2022-08-10T09:24:58.642Z,101011.00
2022-08-10T09:27:39.584Z,101008.47
2022-08-10T09:30:12.678Z,101001.03
2022-08-10T09:36:15.039Z,101000.50
2022-08-10T09:36:26.780Z,100994.13
2022-08-10T09:39:07.993Z,100996.56
2022-08-10T09:41:53.560Z,101000.59
2022-08-10T09:44:29.062Z,100993.66
2022-08-10T09:47:14.384Z,100988.34
2022-08-10T09:50:04.783Z,100987.16
2022-08-10T09:52:59.218Z,100990.38
2022-08-10T09:56:18.045Z,100982.34
2022-08-10T09:58:48.953Z,100982.88
2022-08-10T10:02:03.919Z,100971.38
2022-08-10T10:04:26.319Z,100968.06
2022-08-10T10:07:05.641Z,100974.50
2022-08-10T10:09:42.940Z,100965.88
2022-08-10T10:12:26.026Z,100967.75
2022-08-10T10:15:24.398Z,100968.91
2022-08-10T10:18:10.103Z,100971.81
2022-08-10T10:20:51.133Z,100964.34
2022-08-10T10:24:21.224Z,100963.94
2022-08-10T10:26:48.259Z,100963.66
2022-08-10T10:29:57.929Z,100953.13
2022-08-10T10:32:37.386Z,100952.28
2022-08-10T10:35:14.991Z,100954.06
2022-08-10T10:38:02.134Z,100951.25
2022-08-10T10:40:42.167Z,100972.91
2022-08-10T10:43:26.285Z,100955.94
2022-08-10T10:46:32.267Z,100943.94
2022-08-10T10:48:58.643Z,100941.16
2022-08-10T10:51:43.349Z,100943.75
2022-08-10T10:54:43.828Z,100930.50
2022-08-10T10:57:19.278Z,100942.09
2022-08-10T10:59:57.597Z,100931.59
2022-08-10T11:02:54.519Z,100925.91
2022-08-10T11:05:54.220Z,100926.16
2022-08-10T11:08:29.438Z,100923.06
2022-08-10T11:11:02.710Z,100928.41
2022-08-10T11:14:26.144Z,100911.03
2022-08-10T11:16:57.537Z,100906.59
2022-08-10T11:20:04.474Z,100904.94
2022-08-10T11:23:07.933Z,100917.78
2022-08-10T11:25:40.980Z,100909.16
2022-08-10T11:28:21.814Z,100908.47
2022-08-10T11:31:03.386Z,100901.56
2022-08-10T11:34:47.047Z,100899.75
2022-08-10T11:37:15.579Z,100890.59
2022-08-10T11:39:48.833Z,100896.09
2022-08-10T11:42:35.796Z,100891.38
2022-08-10T11:45:07.995Z,100900.53
2022-08-10T11:47:54.485Z,100898.50
2022-08-10T11:50:28.415Z,100886.63
2022-08-10T11:53:36.642Z,100897.00
2022-08-10T11:56:11.082Z,100884.94
2022-08-10T11:59:00.107Z,100890.59
2022-08-10T12:01:30.910Z,100881.94
2022-08-10T12:04:07.411Z,100873.78
2022-08-10T12:06:55.239Z,100865.00
2022-08-10T12:10:07.080Z,100892.06
2022-08-10T12:12:11.424Z,100884.56
2022-08-10T12:14:53.388Z,100861.75
2022-08-10T12:17:31.069Z,100854.34
2022-08-10T12:20:10.637Z,100855.75
2022-08-10T12:23:04.756Z,100856.88
2022-08-10T12:25:59.158Z,100847.06
2022-08-10T12:28:50.671Z,100845.09
2022-08-10T12:31:25.040Z,100852.72
2022-08-10T12:34:05.279Z,100852.38
2022-08-10T12:36:46.957Z,100840.84
2022-08-10T12:39:21.985Z,100831.78
2022-08-10T12:42:00.472Z,100826.72
2022-08-10T12:44:42.152Z,100827.75
2022-08-10T12:47:35.399Z,100826.72
2022-08-10T12:50:29.600Z,100817.47
2022-08-10T12:53:27.481Z,100817.69
2022-08-10T12:55:55.502Z,100813.09
2022-08-10T12:59:00.208Z,100810.53
2022-08-10T13:01:16.540Z,100818.56
2022-08-10T13:04:20.414Z,100811.38
2022-08-10T13:06:36.879Z,100799.84
2022-08-10T13:09:09.274Z,100792.78
2022-08-10T13:12:35.007Z,100796.50
2022-08-10T13:14:52.987Z,100803.47
2022-08-10T13:17:32.532Z,100793.16
2022-08-10T13:20:16.047Z,100785.44
2022-08-10T13:22:44.181Z,100777.84
2022-08-10T13:25:12.495Z,100791.97
2022-08-10T13:28:01.440Z,100782.44
2022-08-10T13:30:37.581Z,100788.84
2022-08-10T13:33:06.702Z,100773.81
2022-08-10T13:35:34.664Z,100767.84
2022-08-10T13:38:03.612Z,100759.00
2022-08-10T13:40:32.099Z,100770.28
2022-08-10T13:43:01.278Z,100774.38
2022-08-10T13:45:28.812Z,100768.47
2022-08-10T13:48:09.404Z,100752.47
2022-08-10T13:50:38.776Z,100760.72
2022-08-10T13:53:13.986Z,100765.38
2022-08-10T13:55:57.291Z,100752.16
2022-08-10T13:58:35.919Z,100755.06
2022-08-10T14:01:10.220Z,100748.13
2022-08-10T14:03:39.782Z,100748.69
2022-08-10T14:06:11.704Z,100743.56
2022-08-10T14:08:39.365Z,100743.19
2022-08-10T14:11:12.647Z,100738.00
2022-08-10T14:14:01.487Z,100729.44
2022-08-10T14:16:29.112Z,100735.00
2022-08-10T14:18:59.744Z,100736.50
2022-08-10T14:21:27.726Z,100733.63
2022-08-10T14:23:54.440Z,100734.97
2022-08-10T14:26:31.442Z,100730.41
2022-08-10T14:29:03.685Z,100730.63
2022-08-10T14:31:33.721Z,100734.69
2022-08-10T14:34:04.063Z,100724.25
2022-08-10T14:36:57.285Z,100719.31
2022-08-10T14:39:28.873Z,100723.19
2022-08-10T14:42:00.868Z,100709.16
2022-08-10T14:44:44.953Z,100720.19
2022-08-10T14:47:54.056Z,100710.06
2022-08-10T14:50:01.890Z,100708.00
2022-08-10T14:52:30.883Z,100702.84
2022-08-10T14:55:04.753Z,100717.69
2022-08-10T14:58:20.243Z,100709.25
2022-08-10T15:00:36.228Z,100708.06
2022-08-10T15:03:11.194Z,100704.97
2022-08-10T15:05:54.306Z,100703.50
2022-08-10T15:08:27.571Z,100702.63
2022-08-10T15:10:58.211Z,100695.28
2022-08-10T15:13:35.010Z,100691.63
2022-08-10T15:16:13.844Z,100697.13
2022-08-10T15:18:57.902Z,100683.59
2022-08-10T15:21:42.979Z,100686.34
2022-08-10T15:24:37.052Z,100689.09
2022-08-10T15:27:09.987Z,100690.13
2022-08-10T15:29:56.595Z,100691.47
2022-08-10T15:32:52.461Z,100689.22
2022-08-10T15:35:50.640Z,100688.22
2022-08-10T15:38:26.771Z,100673.25
2022-08-10T15:41:02.419Z,100671.19
2022-08-10T15:43:36.939Z,100670.81
2022-08-10T15:46:22.809Z,100661.31
2022-08-10T15:49:01.045Z,100657.25
2022-08-10T15:51:53.823Z,100657.31
2022-08-10T15:54:33.525Z,100649.41
2022-08-10T15:57:08.153Z,100655.59
2022-08-10T15:59:47.619Z,100655.78
2022-08-10T16:02:25.227Z,100660.75
2022-08-10T16:06:01.014Z,100654.38
2022-08-10T16:08:24.045Z,100658.16
2022-08-10T16:11:03.004Z,100654.91
2022-08-10T16:13:59.980Z,100647.00
2022-08-10T16:16:20.433Z,100648.53
2022-08-10T16:18:52.283Z,100642.03
2022-08-10T16:21:24.513Z,100638.19
2022-08-10T16:24:15.143Z,100650.94
2022-08-10T16:26:46.670Z,100636.94
2022-08-10T16:29:17.495Z,100645.81
2022-08-10T16:31:57.189Z,100640.28
2022-08-10T16:34:27.317Z,100640.31
2022-08-10T16:37:06.982Z,100637.69
2022-08-10T16:39:58.530Z,100634.88
2022-08-10T16:42:31.060Z,100632.78
2022-08-10T16:45:13.559Z,100632.78
2022-08-10T16:47:49.020Z,100626.19
2022-08-10T16:50:26.894Z,100625.00
2022-08-10T16:52:55.477Z,100619.03
2022-08-10T16:55:48.321Z,100626.88
2022-08-10T16:58:13.993Z,100628.56
2022-08-10T17:00:42.761Z,100623.28
2022-08-10T17:03:22.710Z,100623.75
2022-08-10T17:06:11.441Z,100615.53
2022-08-10T17:08:48.993Z,100626.50
2022-08-10T17:11:17.524Z,100623.06
2022-08-10T17:13:48.093Z,100617.25
2022-08-10T17:16:17.378Z,100615.19
2022-08-10T17:18:46.999Z,100614.91
2022-08-10T17:21:28.433Z,100608.16
2022-08-10T17:23:57.958Z,100615.88
2022-08-10T17:26:35.311Z,100609.75
2022-08-10T17:29:54.178Z,100612.78
2022-08-10T17:32:05.671Z,100610.06
2022-08-10T17:34:44.311Z,100610.22
2022-08-10T17:37:20.353Z,100609.88
2022-08-10T17:39:55.241Z,100616.53
2022-08-10T17:42:23.309Z,100620.78
2022-08-10T17:44:53.356Z,100619.56
2022-08-10T17:47:23.667Z,100609.78
2022-08-10T17:50:00.780Z,100603.59
2022-08-10T17:52:31.572Z,100613.84
2022-08-10T17:55:05.105Z,100606.19
2022-08-10T17:57:40.286Z,100607.31
2022-08-10T18:00:15.405Z,100608.47
2022-08-10T18:02:48.604Z,100609.94
2022-08-10T18:05:16.598Z,100608.06
2022-08-10T18:07:51.557Z,100611.22
2022-08-10T18:10:21.414Z,100618.75
2022-08-10T18:12:53.029Z,100616.28
2022-08-10T18:15:23.399Z,100614.69
2022-08-10T18:17:59.257Z,100618.44
2022-08-10T18:20:32.676Z,100615.41
2022-08-10T18:23:00.181Z,100616.63
2022-08-10T18:25:33.537Z,100621.78
2022-08-10T18:28:05.077Z,100616.31
2022-08-10T18:30:36.276Z,100621.22
2022-08-10T18:33:09.144Z,100623.16
2022-08-10T18:35:36.808Z,100623.63
2022-08-10T18:38:06.675Z,100618.63
2022-08-10T18:40:36.676Z,100608.78
2022-08-10T18:44:04.466Z,100618.53
2022-08-10T18:45:56.539Z,100611.69
2022-08-10T18:48:27.813Z,100610.69
2022-08-10T18:50:57.435Z,100608.88
2022-08-10T18:53:34.467Z,100624.25
2022-08-10T18:56:31.567Z,100624.97
2022-08-10T18:59:30.888Z,100622.94
2022-08-10T19:02:26.249Z,100628.78
2022-08-10T19:05:31.478Z,100630.50
2022-08-10T19:08:31.454Z,100636.66
2022-08-10T19:11:32.422Z,100634.81
2022-08-10T19:14:06.403Z,100636.81
2022-08-10T19:16:54.923Z,100640.94
2022-08-10T19:19:44.966Z,100642.84
2022-08-10T19:22:21.243Z,100642.13
2022-08-10T19:25:01.402Z,100641.44
2022-08-10T19:27:49.080Z,100634.38
2022-08-10T19:30:17.663Z,100643.50
2022-08-10T19:32:52.974Z,100628.56
2022-08-10T19:35:22.813Z,100643.28
2022-08-10T19:38:16.660Z,100651.84
2022-08-10T19:41:12.606Z,100649.88
2022-08-10T19:44:00.047Z,100652.34
2022-08-10T19:46:51.774Z,100654.44
2022-08-10T19:49:39.595Z,100644.44
2022-08-10T19:52:19.547Z,100653.09
2022-08-10T19:55:06.172Z,100652.22
2022-08-10T19:57:49.715Z,100650.66
2022-08-10T20:00:22.774Z,100654.78
2022-08-10T20:03:07.508Z,100655.00
2022-08-10T20:06:18.945Z,100662.53
2022-08-10T20:08:40.971Z,100660.09
2022-08-10T20:11:46.462Z,100659.34
2022-08-10T20:14:21.529Z,100659.31
2022-08-10T20:16:49.795Z,100660.63
2022-08-10T20:19:53.029Z,100668.91
2022-08-10T20:22:29.614Z,100665.19
2022-08-10T20:25:14.338Z,100664.22
2022-08-10T20:27:59.413Z,100662.44
2022-08-10T20:30:32.300Z,100668.28
2022-08-10T20:33:08.008Z,100669.88
2022-08-10T20:35:40.180Z,100670.13
2022-08-10T20:38:14.952Z,100668.25
2022-08-10T20:40:47.202Z,100662.06
2022-08-10T20:43:26.616Z,100667.16
2022-08-10T20:46:15.567Z,100664.03
2022-08-10T20:49:04.348Z,100661.97
2022-08-10T20:51:58.635Z,100665.78
2022-08-10T20:54:33.602Z,100673.34
2022-08-10T20:57:07.030Z,100665.22
2022-08-10T21:00:07.243Z,100669.66
2022-08-10T21:03:06.957Z,100663.13
2022-08-10T21:05:52.803Z,100667.91
2022-08-10T21:08:42.549Z,100668.13
2022-08-10T21:11:21.014Z,100666.66
2022-08-10T21:13:54.218Z,100665.28
2022-08-10T21:16:47.298Z,100657.25
2022-08-10T21:19:53.585Z,100666.47
2022-08-10T21:22:29.405Z,100669.69
2022-08-10T21:25:02.188Z,100666.53
2022-08-10T21:27:56.364Z,100662.69
2022-08-10T21:30:57.246Z,100662.69
2022-08-10T21:33:36.366Z,100659.47
2022-08-10T21:36:17.118Z,100654.78
2022-08-10T21:38:57.252Z,100659.19
2022-08-10T21:42:22.728Z,100661.22
2022-08-10T21:45:58.131Z,100662.31
2022-08-10T21:49:16.368Z,100671.00
2022-08-10T21:52:17.863Z,100667.91
2022-08-10T21:59:01.813Z,100658.03
2022-08-10T22:01:55.712Z,100656.16
2022-08-10T22:04:45.695Z,100664.19
2022-08-10T22:07:36.060Z,100662.97
2022-08-10T22:10:25.622Z,100665.91
2022-08-10T22:13:12.581Z,100656.28
2022-08-10T22:16:11.521Z,100664.94
2022-08-10T22:19:02.387Z,100663.72
2022-08-10T22:22:02.112Z,100666.56
2022-08-10T22:25:05.069Z,100662.97
2022-08-10T22:28:02.058Z,100664.97
2022-08-10T22:31:22.727Z,100658.78
2022-08-10T22:31:28.110Z,100665.44
2022-08-10T22:34:23.150Z,100665.34
2022-08-10T22:37:16.999Z,100670.38
2022-08-10T22:40:21.019Z,100665.13
2022-08-10T22:43:11.919Z,100661.19
2022-08-10T22:46:11.044Z,100656.34
2022-08-10T22:49:00.843Z,100663.97
2022-08-10T22:51:47.240Z,100656.69
2022-08-10T22:54:40.017Z,100652.72
2022-08-10T22:57:30.382Z,100656.16
2022-08-10T22:59:57.640Z,100656.81
2022-08-10T23:02:28.861Z,100662.81
2022-08-10T23:05:16.806Z,100669.28
2022-08-10T23:07:50.685Z,100663.34
2022-08-10T23:10:21.877Z,100669.94
2022-08-10T23:12:59.032Z,100665.31
2022-08-10T23:15:56.079Z,100665.91
2022-08-10T23:19:11.699Z,100671.97
2022-08-10T23:22:03.970Z,100676.06
2022-08-10T23:24:51.641Z,100673.28
2022-08-10T23:27:37.519Z,100675.19
2022-08-10T23:30:17.691Z,100676.50
2022-08-10T23:32:59.482Z,100676.97
2022-08-10T23:36:29.498Z,100680.50
2022-08-10T23:38:16.687Z,100675.81
2022-08-10T23:40:46.450Z,100678.22
2022-08-10T23:43:32.098Z,100670.59
2022-08-10T23:46:08.948Z,100673.94
2022-08-10T23:48:38.295Z,100681.94
2022-08-10T23:51:16.455Z,100672.13
2022-08-10T23:53:46.309Z,100673.13
2022-08-10T23:56:16.707Z,100672.03
2022-08-10T23:58:47.823Z,100677.78
